createdAt,value
2022-12-13T00:02:15.486Z,0.20
2022-12-13T00:04:41.343Z,0.20
2022-12-13T00:07:07.105Z,0.30
2022-12-13T00:09:32.900Z,0.20
2022-12-13T00:11:58.705Z,0.30
2022-12-13T00:14:24.469Z,0.20
2022-12-13T00:16:50.324Z,0.20
2022-12-13T00:19:16.734Z,0.20
2022-12-13T00:21:42.591Z,0.20
2022-12-13T00:24:08.390Z,0.20
2022-12-13T00:26:34.265Z,0.20
2022-12-13T00:29:01.601Z,0.20
2022-12-13T00:34:14.915Z,0.40
2022-12-13T00:36:40.708Z,0.30
2022-12-13T00:39:06.517Z,0.20
2022-12-13T00:41:33.849Z,0.27
2022-12-13T00:44:00.188Z,0.30
2022-12-13T00:46:26.445Z,0.20
2022-12-13T00:48:53.743Z,0.20
2022-12-13T00:51:23.215Z,0.20
2022-12-13T00:53:49.061Z,0.30
2022-12-13T00:56:16.824Z,0.20
2022-12-13T00:58:47.310Z,0.30
2022-12-13T01:01:17.331Z,0.30
2022-12-13T01:03:43.233Z,0.30
2022-12-13T01:06:15.170Z,0.30
2022-12-13T01:08:41.350Z,0.30
2022-12-13T01:11:07.591Z,0.30
2022-12-13T01:13:33.835Z,0.20
2022-12-13T01:16:01.246Z,0.20
2022-12-13T01:18:26.997Z,0.20
2022-12-13T01:21:06.459Z,0.30
2022-12-13T01:23:32.722Z,0.23
2022-12-13T01:26:01.080Z,0.30
2022-12-13T01:28:26.851Z,0.33
2022-12-13T01:31:00.343Z,0.30
2022-12-13T01:33:26.634Z,0.20
2022-12-13T01:35:52.794Z,0.23
2022-12-13T01:38:19.150Z,0.30
2022-12-13T01:40:57.639Z,0.20
2022-12-13T01:43:25.860Z,0.20
2022-12-13T01:45:52.105Z,0.20
2022-12-13T01:48:20.549Z,0.50
2022-12-13T01:50:47.966Z,0.50
2022-12-13T01:53:16.561Z,0.20
2022-12-13T01:55:43.785Z,0.40
2022-12-13T01:58:09.820Z,0.27
2022-12-13T02:00:35.685Z,0.77
2022-12-13T02:03:02.128Z,0.20
2022-12-13T02:05:31.086Z,0.20
2022-12-13T02:07:57.713Z,0.30
2022-12-13T02:10:23.877Z,0.20
2022-12-13T02:12:49.658Z,0.20
2022-12-13T02:15:16.851Z,0.20
2022-12-13T02:17:44.627Z,0.20
2022-12-13T02:20:31.987Z,0.20
2022-12-13T02:23:04.104Z,0.87
2022-12-13T02:25:29.849Z,0.30
2022-12-13T02:28:00.875Z,0.20
2022-12-13T02:30:37.018Z,0.20
2022-12-13T02:33:09.529Z,0.20
2022-12-13T02:35:54.207Z,0.20
2022-12-13T02:38:24.746Z,0.30
2022-12-13T02:40:56.735Z,0.40
2022-12-13T02:43:33.362Z,0.20
2022-12-13T02:46:00.658Z,0.20
2022-12-13T02:48:29.362Z,0.20
2022-12-13T02:50:56.039Z,0.30
2022-12-13T02:53:22.446Z,0.20
2022-12-13T02:55:48.394Z,0.20
2022-12-13T02:58:15.425Z,0.20
2022-12-13T03:00:57.547Z,0.30
2022-12-13T03:03:29.327Z,0.20
2022-12-13T03:06:34.049Z,0.20
2022-12-13T03:09:07.960Z,0.20
2022-12-13T03:12:17.025Z,0.20
2022-12-13T03:15:05.820Z,0.20
2022-12-13T03:17:35.691Z,0.20
2022-12-13T03:20:03.238Z,0.30
2022-12-13T03:22:48.236Z,0.20
2022-12-13T03:25:14.375Z,0.20
2022-12-13T03:27:57.273Z,0.30
2022-12-13T03:30:27.101Z,0.30
2022-12-13T03:32:52.943Z,0.20
2022-12-13T03:35:22.270Z,0.20
2022-12-13T03:37:48.546Z,0.20
2022-12-13T03:40:14.398Z,0.20
2022-12-13T03:42:40.176Z,0.20
2022-12-13T03:45:06.145Z,0.20
2022-12-13T03:47:31.922Z,0.30
2022-12-13T03:49:57.673Z,0.20
2022-12-13T03:52:43.827Z,0.30
2022-12-13T03:55:09.734Z,0.23
2022-12-13T03:57:35.823Z,0.30
2022-12-13T04:00:01.842Z,0.20
2022-12-13T04:02:31.578Z,0.20
2022-12-13T04:04:57.546Z,0.20
2022-12-13T04:07:26.683Z,0.30
2022-12-13T04:10:00.258Z,0.20
2022-12-13T04:12:48.363Z,0.20
2022-12-13T04:15:14.823Z,0.20
2022-12-13T04:17:40.846Z,0.30
2022-12-13T04:20:06.908Z,0.20
2022-12-13T04:22:32.705Z,0.20
2022-12-13T04:25:01.478Z,0.30
2022-12-13T04:27:27.222Z,0.20
2022-12-13T04:29:53.001Z,0.20
2022-12-13T04:32:26.463Z,0.20
2022-12-13T04:34:53.137Z,0.30
2022-12-13T04:37:27.124Z,0.20
2022-12-13T04:39:52.957Z,0.30
2022-12-13T04:42:26.348Z,0.20
2022-12-13T04:44:52.129Z,0.30
2022-12-13T04:47:17.899Z,0.33
2022-12-13T04:49:43.773Z,0.20
2022-12-13T04:52:09.730Z,0.20
2022-12-13T04:54:37.042Z,0.30
2022-12-13T04:57:04.571Z,0.20
2022-12-13T04:59:30.389Z,0.40
2022-12-13T05:01:56.239Z,0.20
2022-12-13T05:04:22.049Z,0.30
2022-12-13T05:06:47.840Z,0.30
2022-12-13T05:09:13.631Z,0.20
2022-12-13T05:11:45.695Z,0.30
2022-12-13T05:14:11.898Z,0.40
2022-12-13T05:16:37.736Z,0.20
2022-12-13T05:54:15.279Z,17.45
2022-12-13T05:56:42.581Z,19.08
2022-12-13T05:59:08.814Z,17.88
2022-12-13T06:06:50.902Z,17.17
2022-12-13T06:09:18.692Z,18.58
2022-12-13T06:11:46.696Z,19.13
2022-12-13T06:14:21.927Z,21.35
2022-12-13T06:16:49.954Z,18.17
2022-12-13T06:19:16.293Z,23.75
2022-12-13T06:21:46.285Z,19.93
2022-12-13T06:24:48.469Z,19.00
2022-12-13T06:27:16.838Z,21.90
2022-12-13T06:29:44.714Z,30.10
2022-12-13T06:32:12.744Z,21.70
2022-12-13T06:34:40.562Z,17.90
2022-12-13T06:37:09.253Z,20.07
2022-12-13T06:39:38.056Z,20.70
2022-12-13T06:42:08.140Z,21.17
2022-12-13T06:44:35.125Z,16.92
2022-12-13T06:47:10.123Z,16.47
2022-12-13T06:49:47.166Z,17.03
2022-12-13T06:52:16.704Z,21.33
2022-12-13T06:55:10.932Z,19.77
2022-12-13T06:57:42.200Z,22.13
2022-12-13T07:00:08.945Z,22.57
2022-12-13T07:02:35.313Z,27.87
2022-12-13T07:05:02.240Z,22.37
2022-12-13T07:07:31.667Z,21.70
2022-12-13T07:09:57.843Z,21.80
2022-12-13T07:12:24.485Z,21.00
2022-12-13T07:14:51.217Z,21.93
2022-12-13T07:17:32.860Z,18.77
2022-12-13T07:20:01.232Z,23.07
2022-12-13T07:22:27.780Z,18.30
2022-12-13T07:25:28.392Z,18.97
2022-12-13T07:28:02.502Z,19.67
2022-12-13T07:30:30.592Z,18.87
2022-12-13T07:33:00.763Z,23.43
2022-12-13T07:35:26.669Z,19.42
2022-12-13T07:37:56.792Z,26.17
2022-12-13T07:40:22.991Z,22.13
2022-12-13T07:42:56.132Z,18.60
2022-12-13T07:45:23.488Z,20.63
2022-12-13T07:47:49.564Z,21.03
2022-12-13T07:50:25.786Z,23.00
2022-12-13T07:52:53.081Z,26.23
2022-12-13T07:55:33.555Z,19.47
2022-12-13T07:58:11.282Z,17.70
2022-12-13T08:00:38.107Z,19.13
2022-12-13T08:03:06.409Z,20.47
2022-12-13T08:05:38.569Z,20.27
2022-12-13T08:08:06.841Z,19.57
2022-12-13T08:10:32.910Z,18.47
2022-12-13T08:13:02.259Z,20.20
2022-12-13T08:15:28.363Z,17.30
2022-12-13T08:17:59.420Z,19.33
2022-12-13T08:20:27.435Z,21.27
2022-12-13T08:23:02.038Z,19.63
2022-12-13T08:26:02.840Z,22.53
2022-12-13T08:28:31.935Z,21.45
2022-12-13T08:31:10.969Z,18.03
2022-12-13T08:33:37.291Z,18.93
2022-12-13T08:36:17.140Z,18.33
2022-12-13T08:38:48.618Z,21.02
2022-12-13T08:41:14.596Z,20.33
2022-12-13T08:43:41.312Z,24.07
2022-12-13T08:46:07.691Z,21.13
2022-12-13T08:48:36.225Z,19.30
2022-12-13T08:51:13.145Z,22.17
2022-12-13T08:53:42.894Z,21.53
2022-12-13T08:56:12.088Z,17.88
2022-12-13T08:58:43.181Z,16.90
2022-12-13T09:01:10.531Z,18.87
2022-12-13T09:06:19.568Z,18.70
2022-12-13T09:08:56.282Z,16.80
2022-12-13T09:11:34.576Z,16.97
2022-12-13T09:14:04.883Z,16.10
2022-12-13T09:16:39.472Z,17.20
2022-12-13T09:21:50.472Z,16.40
2022-12-13T09:24:29.687Z,18.17
2022-12-13T09:29:51.004Z,15.15
2022-12-13T09:32:17.612Z,17.53
2022-12-13T09:42:45.304Z,16.93
2022-12-13T09:45:21.976Z,14.00
2022-12-13T09:47:51.562Z,18.23
2022-12-13T09:50:37.487Z,16.13
2022-12-13T09:53:11.993Z,13.47
2022-12-13T09:58:57.167Z,16.17
2022-12-13T10:01:24.556Z,14.53
2022-12-13T10:06:34.426Z,13.50
2022-12-13T10:09:17.722Z,13.57
2022-12-13T10:14:36.442Z,15.40
2022-12-13T10:17:19.016Z,20.17
2022-12-13T10:19:46.575Z,17.50
2022-12-13T10:22:22.117Z,16.90
2022-12-13T10:24:56.738Z,16.63
2022-12-13T10:27:25.681Z,14.83
2022-12-13T10:30:11.803Z,17.27
2022-12-13T10:33:08.919Z,16.53
2022-12-13T10:38:32.163Z,12.77
2022-12-13T10:40:58.866Z,19.43
2022-12-13T10:43:29.631Z,14.77
2022-12-13T10:45:59.627Z,13.90
2022-12-13T10:48:44.977Z,15.05
2022-12-13T10:51:16.305Z,15.67
2022-12-13T10:53:55.082Z,14.27
2022-12-13T11:43:46.628Z,17.27
2022-12-13T18:11:31.108Z,30.83
2022-12-13T18:13:47.436Z,27.33
2022-12-13T18:16:20.623Z,30.80
2022-12-13T18:24:36.661Z,33.63
2022-12-13T18:27:03.613Z,30.73
2022-12-13T18:29:38.936Z,31.03
2022-12-13T22:20:44.272Z,43.33
2022-12-13T22:23:11.731Z,47.33
2022-12-13T22:25:38.709Z,43.53
2022-12-13T22:28:07.097Z,44.10
2022-12-13T22:30:34.087Z,44.60
2022-12-13T22:33:01.971Z,40.57
2022-12-13T22:35:32.949Z,45.00
2022-12-13T22:38:01.691Z,44.83
2022-12-13T22:41:12.261Z,38.00
2022-12-13T22:43:43.634Z,43.58
2022-12-13T22:46:12.825Z,47.10
2022-12-13T22:48:39.550Z,46.23
2022-12-13T22:51:10.971Z,43.30
2022-12-13T22:53:37.965Z,42.73
2022-12-13T22:56:08.681Z,37.40
2022-12-13T22:58:35.274Z,42.30
2022-12-13T23:01:15.631Z,41.43
2022-12-13T23:06:20.559Z,48.07
2022-12-13T23:08:50.629Z,38.00
2022-12-13T23:11:36.190Z,39.53
2022-12-13T23:14:03.221Z,38.50
2022-12-13T23:16:30.590Z,40.13
2022-12-13T23:19:31.713Z,36.80
2022-12-13T23:21:48.413Z,40.33
2022-12-13T23:26:40.354Z,39.40
2022-12-13T23:29:07.218Z,42.33
2022-12-13T23:31:40.735Z,42.00
2022-12-13T23:34:07.149Z,38.07
2022-12-13T23:36:33.459Z,44.20
2022-12-13T23:38:59.515Z,41.93
2022-12-13T23:41:30.870Z,38.67
2022-12-13T23:43:59.600Z,36.57
2022-12-13T23:46:28.306Z,34.97
2022-12-13T23:48:54.096Z,40.10
2022-12-13T23:51:19.897Z,37.27
2022-12-13T23:53:45.665Z,34.53
2022-12-13T23:56:13.114Z,37.43
2022-12-13T23:58:39.540Z,37.77
